Time;durP1;ratioP1;P1;durP2;ratioP2;P2;SDS_P1;SDS_P2;PMS_P1;PMS_P2;Temp;Humidity;BMP_temperature;BMP_pressure;BME280_temperature;BME280_humidity;BME280_pressure;Samples;Min_cycle;Max_cycle;Signal;HPM_P1;HPM_P2
2022/04/08 00:00:19;;;;;;;5.32;0.50;;;5.90;99.90;;;;;;4826310;29;20090;-88
2022/04/08 00:03:39;;;;;;;9.77;0.60;;;5.80;99.90;;;;;;4856025;29;20150;-87
2022/04/08 00:07:07;;;;;;;3.30;0.45;;;6.00;99.90;;;;;;4877092;29;20577;-86
2022/04/08 00:10:18;;;;;;;;;;;;;;;;;;;;;
2022/04/08 00:13:51;;;;;;;3.72;0.50;;;6.10;99.90;;;;;;4878766;29;20041;-87
2022/04/08 00:21:11;;;;;;;;;;;;;;;;;;;;;
2022/04/08 00:24:16;;;;;;;1.15;0.25;;;5.90;99.90;;;;;;4840210;29;20049;-86
2022/04/08 00:27:46;;;;;;;;;;;;;;;;;;;;;
2022/04/08 00:30:51;;;;;;;3.58;0.35;;;6.10;99.90;;;;;;4837426;29;20054;-84
2022/04/08 00:34:27;;;;;;;;;;;;;;;;;;;;;
2022/04/08 00:37:19;;;;;;;4.80;0.30;;;5.40;99.90;;;;;;4845016;29;20053;-87
2022/04/08 00:47:11;;;;;;;6.68;0.60;;;5.40;99.90;;;;;;4801612;29;20061;-85
2022/04/08 00:50:13;;;;;;;5.88;0.47;;;5.30;99.90;;;;;;4824371;29;20134;-86
2022/04/08 00:53:24;;;;;;;7.90;0.63;;;5.10;99.90;;;;;;4824042;29;20102;-85
2022/04/08 00:56:49;;;;;;;5.97;0.70;;;5.30;99.90;;;;;;4822156;29;20496;-85
2022/04/08 01:00:10;;;;;;;;;;;;;;;;;;;;;
2022/04/08 01:03:16;;;;;;;7.82;0.55;;;5.30;99.90;;;;;;4838855;29;20073;-85
2022/04/08 01:06:20;;;;;;;8.63;0.70;;;5.20;99.90;;;;;;4823696;29;20054;-85
2022/04/08 01:09:24;;;;;;;8.57;1.23;;;5.40;99.90;;;;;;4823696;29;20050;-84
2022/04/08 01:12:29;;;;;;;12.20;1.17;;;4.90;99.90;;;;;;4839954;29;20081;-83
2022/04/08 01:15:45;;;;;;;7.10;1.27;;;4.70;99.90;;;;;;4839298;29;20125;-84
2022/04/08 01:18:52;;;;;;;1.90;0.50;;;4.80;99.90;;;;;;4839490;29;20133;-86
2022/04/08 01:21:52;;;;;;;8.05;0.77;;;4.60;99.90;;;;;;4839763;29;20096;-84
2022/04/08 01:25:10;;;;;;;4.53;0.50;;;4.50;99.90;;;;;;4839663;29;20054;-85
2022/04/08 01:28:33;;;;;;;2.92;0.70;;;4.80;99.90;;;;;;4871125;29;20064;-85
2022/04/08 01:31:55;;;;;;;;;;;;;;;;;;;;;
2022/04/08 01:34:40;;;;;;;3.50;0.30;;;4.60;99.90;;;;;;4818212;29;20084;-85
2022/04/08 01:38:10;;;;;;;5.15;0.50;;;5.10;99.90;;;;;;4876974;29;20056;-84
2022/04/08 01:44:47;;;;;;;9.23;1.33;;;4.70;99.90;;;;;;4875658;29;20113;-87
2022/04/08 01:48:09;;;;;;;10.50;0.75;;;5.20;99.90;;;;;;4877162;29;20128;-85
2022/04/08 01:51:20;;;;;;;5.53;0.43;;;4.30;99.90;;;;;;4879377;29;20060;-87
2022/04/08 01:54:41;;;;;;;4.57;0.60;;;4.70;99.90;;;;;;4798518;29;20508;-86
2022/04/08 01:57:56;;;;;;;;;;;;;;;;;;;;;
2022/04/08 02:01:12;;;;;;;8.15;0.73;;;4.50;99.90;;;;;;4805392;29;20069;-86
2022/04/08 02:04:36;;;;;;;;;;;;;;;;;;;;;
2022/04/08 02:07:43;;;;;;;1.95;0.50;;;5.50;99.90;;;;;;4789576;29;20059;-87
2022/04/08 02:14:20;;;;;;;3.97;0.32;;;4.40;99.90;;;;;;4802163;29;20065;-86
2022/04/08 02:17:15;;;;;;;6.10;0.60;;;4.40;99.90;;;;;;4789763;29;20565;-87
2022/04/08 02:24:19;;;;;;;;;;;;;;;;;;;;;
2022/04/08 02:27:45;;;;;;;1.52;0.28;;;4.40;99.90;;;;;;4805244;29;20054;-86
2022/04/08 02:30:55;;;;;;;4.13;0.70;;;4.30;99.90;;;;;;4822801;29;20049;-87
2022/04/08 02:38:17;;;;;;;;;;;;;;;;;;;;;
2022/04/08 02:41:48;;;;;;;;;;;;;;;;;;;;;
2022/04/08 02:45:16;;;;;;;;;;;;;;;;;;;;;
2022/04/08 02:47:56;;;;;;;;;;;4.40;99.90;;;;;;4825438;29;20124;-86
2022/04/08 02:50:59;;;;;;;0.88;0.30;;;4.40;99.90;;;;;;4861491;29;19928;-85
2022/04/08 02:54:22;;;;;;;;;;;;;;;;;;;;;
2022/04/08 02:57:46;;;;;;;5.57;0.85;;;4.30;99.90;;;;;;4843540;29;20056;-87
2022/04/08 03:01:07;;;;;;;8.52;0.95;;;4.40;99.90;;;;;;4877885;29;20120;-85
2022/04/08 03:03:59;;;;;;;3.60;0.75;;;4.40;99.90;;;;;;4875173;29;20053;-85
2022/04/08 03:07:10;;;;;;;5.07;0.30;;;3.90;99.90;;;;;;4863301;29;20043;-84
2022/04/08 03:10:21;;;;;;;2.10;0.40;;;4.90;99.90;;;;;;4858231;29;20053;-87
2022/04/08 03:13:35;;;;;;;2.38;0.40;;;4.40;99.90;;;;;;4878479;29;20041;-86
2022/04/08 03:16:52;;;;;;;;;;;;;;;;;;;;;
2022/04/08 03:20:03;;;;;;;2.50;0.40;;;4.40;99.90;;;;;;4873580;29;20495;-86
2022/04/08 03:23:25;;;;;;;;;;;;;;;;;;;;;
2022/04/08 03:26:51;;;;;;;2.60;0.63;;;4.60;99.90;;;;;;4877684;29;20135;-87
2022/04/08 03:30:27;;;;;;;;;;;;;;;;;;;;;
2022/04/08 03:33:41;;;;;;;1.98;0.50;;;4.70;99.90;;;;;;4878946;29;20156;-86
2022/04/08 03:37:22;;;;;;;;;;;;;;;;;;;;;
2022/04/08 03:40:50;;;;;;;1.70;0.68;;;4.60;99.90;;;;;;4878031;29;20511;-86
2022/04/08 03:51:15;;;;;;;5.18;0.40;;;4.50;99.90;;;;;;4879308;29;20116;-86
2022/04/08 03:54:17;;;;;;;3.28;0.40;;;4.20;99.90;;;;;;4861289;29;20080;-86
2022/04/08 03:57:58;;;;;;;;;;;;;;;;;;;;;
2022/04/08 04:01:25;;;;;;;4.90;1.02;;;4.30;99.90;;;;;;4878621;29;20525;-86
2022/04/08 04:04:41;;;;;;;1.88;0.50;;;4.40;99.90;;;;;;4825585;29;20148;-86
2022/04/08 04:08:01;;;;;;;4.35;0.60;;;3.50;99.90;;;;;;4875889;29;20049;-84
2022/04/08 04:11:36;;;;;;;4.85;0.55;;;3.80;99.90;;;;;;4878726;29;20059;-85
2022/04/08 04:14:46;;;;;;;5.35;0.75;;;4.20;99.90;;;;;;4875229;29;20506;-86
2022/04/08 04:18:09;;;;;;;6.60;0.60;;;4.20;99.90;;;;;;4800627;29;20053;-84
2022/04/08 04:21:40;;;;;;;5.60;0.70;;;4.10;99.90;;;;;;4802485;29;20047;-85
2022/04/08 04:25:12;;;;;;;;;;;;;;;;;;;;;
2022/04/08 04:28:04;;;;;;;1.95;0.50;;;4.00;99.90;;;;;;4786908;29;20131;-85
2022/04/08 04:31:21;;;;;;;1.80;0.43;;;5.00;99.90;;;;;;4800609;29;20461;-86
2022/04/08 04:34:38;;;;;;;;;;;;;;;;;;;;;
2022/04/08 04:37:44;;;;;;;3.67;0.50;;;3.80;99.90;;;;;;4781727;29;20126;-85
2022/04/08 04:40:55;;;;;;;6.22;0.50;;;3.80;99.90;;;;;;4800592;29;20058;-87
2022/04/08 04:44:02;;;;;;;1.90;0.43;;;3.70;99.90;;;;;;4788015;29;20184;-86
2022/04/08 04:47:18;;;;;;;2.35;0.50;;;3.70;99.90;;;;;;4802105;29;20065;-85
2022/04/08 04:50:09;;;;;;;1.80;0.40;;;3.50;99.90;;;;;;4801873;29;20107;-85
2022/04/08 04:56:56;;;;;;;6.30;0.80;;;3.70;99.90;;;;;;4872699;29;20052;-85
2022/04/08 04:59:58;;;;;;;4.55;0.50;;;3.80;99.90;;;;;;4873559;29;20120;-87
2022/04/08 05:03:29;;;;;;;2.95;0.60;;;3.80;99.90;;;;;;4844779;29;20041;-86
2022/04/08 05:10:06;;;;;;;5.78;0.70;;;4.00;99.90;;;;;;4822864;29;20086;-87
2022/04/08 05:13:33;;;;;;;6.60;0.90;;;4.00;99.90;;;;;;4810578;29;20054;-85
2022/04/08 05:20:21;;;;;;;3.83;0.60;;;3.90;99.90;;;;;;4732771;30;20083;-85
2022/04/08 05:23:37;;;;;;;1.92;0.50;;;3.80;99.90;;;;;;4729867;30;20102;-85
2022/04/08 05:26:55;;;;;;;3.05;0.82;;;3.70;99.90;;;;;;4733277;30;20451;-84
2022/04/08 05:29:58;;;;;;;1.70;0.50;;;3.70;99.90;;;;;;4724636;30;20068;-85
2022/04/08 05:32:54;;;;;;;1.17;0.50;;;3.60;99.90;;;;;;4731930;30;20052;-86
2022/04/08 05:35:54;;;;;;;1.38;0.50;;;3.50;99.90;;;;;;4739157;30;20049;-85
2022/04/08 05:39:02;;;;;;;2.53;0.57;;;3.50;99.90;;;;;;4734192;30;20487;-84
2022/04/08 05:42:20;;;;;;;1.20;0.50;;;3.50;99.90;;;;;;4734763;30;20145;-85
2022/04/08 05:45:42;;;;;;;3.15;0.45;;;3.50;99.90;;;;;;4722498;30;20213;-85
2022/04/08 05:48:39;;;;;;;1.55;0.50;;;3.80;99.90;;;;;;4720692;30;20061;-85
2022/04/08 05:51:40;;;;;;;2.45;0.40;;;3.60;99.90;;;;;;4721649;30;20110;-86
2022/04/08 05:54:48;;;;;;;2.72;0.50;;;3.00;99.90;;;;;;4791241;29;20078;-86
2022/04/08 05:57:59;;;;;;;2.72;0.65;;;3.70;99.90;;;;;;4797515;29;20521;-85
2022/04/08 06:01:00;;;;;;;;;;;;;;;;;;;;;
2022/04/08 06:04:26;;;;;;;;;;;;;;;;;;;;;
2022/04/08 06:07:35;;;;;;;;;;;;;;;;;;;;;
2022/04/08 06:11:23;;;;;;;2.20;0.38;;;4.00;99.90;;;;;;4763631;29;20584;-87
2022/04/08 06:14:46;;;;;;;0.88;0.40;;;4.10;99.90;;;;;;4805027;29;20121;-85
2022/04/08 06:17:59;;;;;;;2.13;1.02;;;4.20;99.90;;;;;;4793624;29;20059;-87
2022/04/08 06:21:40;;;;;;;0.82;0.50;;;4.40;99.90;;;;;;4874754;29;20585;-86
2022/04/08 06:25:11;;;;;;;1.52;0.45;;;4.60;99.90;;;;;;4760774;29;20066;-86
2022/04/08 06:28:37;;;;;;;;;;;;;;;;;;;;;
2022/04/08 06:31:37;;;;;;;0.95;0.50;;;4.30;99.90;;;;;;4881073;29;20041;-88
2022/04/08 06:34:52;;;;;;;;;;;;;;;;;;;;;
2022/04/08 06:38:28;;;;;;;2.72;0.60;;;4.30;99.90;;;;;;4875869;29;20549;-84
2022/04/08 06:41:53;;;;;;;3.38;0.50;;;4.40;99.90;;;;;;4815266;29;20142;-84
2022/04/08 06:45:12;;;;;;;;;;;;;;;;;;;;;
2022/04/08 06:48:11;;;;;;;2.08;0.50;;;4.60;99.90;;;;;;4812975;29;20086;-85
2022/04/08 06:50:58;;;;;;;4.40;1.67;;;4.80;99.90;;;;;;4786176;29;20070;-85
2022/04/08 06:53:27;;;;;;;2.13;0.40;;;5.00;99.90;;;;;;4796555;29;20066;-84
2022/04/08 06:55:56;;;;;;;3.85;0.65;;;5.20;99.90;;;;;;4773119;29;20053;-83
2022/04/08 06:58:50;;;;;;;1.08;0.60;;;5.30;99.90;;;;;;4796502;29;20120;-85
2022/04/08 07:02:00;;;;;;;;;;;;;;;;;;;;;
2022/04/08 07:04:54;;;;;;;;;;;;;;;;;;;;;
2022/04/08 07:08:29;;;;;;;9.43;0.95;;;5.50;99.90;;;;;;4685244;30;20173;-86
2022/04/08 07:11:54;;;;;;;3.55;1.23;;;5.70;99.90;;;;;;4687843;30;20417;-84
2022/04/08 07:15:00;;;;;;;2.78;0.57;;;5.80;99.90;;;;;;4678291;30;20168;-86
2022/04/08 07:17:40;;;;;;;1.90;0.70;;;6.00;99.90;;;;;;4754837;30;20067;-85
2022/04/08 07:20:33;;;;;;;5.57;0.70;;;6.10;99.90;;;;;;4727999;30;20407;-85
2022/04/08 07:27:00;;;;;;;1.40;0.60;;;6.60;99.90;;;;;;4757617;30;20075;-85
2022/04/08 07:30:11;;;;;;;3.13;0.60;;;6.70;99.90;;;;;;4750604;30;20476;-85
2022/04/08 07:33:32;;;;;;;1.05;0.60;;;6.80;99.90;;;;;;4751324;30;20551;-85
2022/04/08 07:36:32;;;;;;;5.68;0.80;;;7.00;99.90;;;;;;4751350;30;20093;-85
2022/04/08 07:39:41;;;;;;;5.35;0.70;;;7.20;99.90;;;;;;4754980;30;20513;-85
2022/04/08 07:43:24;;;;;;;1.85;0.50;;;8.20;99.90;;;;;;4821835;29;20050;-87
2022/04/08 07:50:40;;;;;;;;;;;;;;;;;;;;;
2022/04/08 07:58:08;;;;;;;5.20;0.60;;;8.70;99.90;;;;;;4812930;29;20058;-86
2022/04/08 08:25:53;;;;;;;4.40;0.80;;;8.00;99.90;;;;;;4630112;30;20102;-86
2022/04/08 09:18:42;;;;;;;;;;;;;;;;;;;;;
2022/04/08 09:22:36;;;;;;;;;;;;;;;;;;;;;
2022/04/08 10:08:54;;;;;;;1.98;0.30;;;9.70;99.90;;;;;;5621021;23;20053;-86
2022/04/08 10:12:06;;;;;;;2.25;0.40;;;9.70;99.90;;;;;;4843834;29;20133;-82
2022/04/08 10:32:21;;;;;;;;;;;;;;;;;;;;;
2022/04/08 10:39:31;;;;;;;2.80;0.40;;;9.50;99.90;;;;;;5083982;24;20064;-85
2022/04/08 10:42:53;;;;;;;;;;;;;;;;;;;;;
2022/04/08 11:01:38;;;;;;;;;;;;;;;;;;;;;
2022/04/08 11:12:40;;;;;;;3.25;0.50;;;10.30;99.90;;;;;;4631088;30;20502;-86
2022/04/08 11:15:23;;;;;;;1.45;0.30;;;10.50;99.90;;;;;;4630350;30;20134;-84
2022/04/08 11:18:06;;;;;;;1.80;0.50;;;10.30;99.90;;;;;;4630794;30;20067;-85
2022/04/08 11:20:54;;;;;;;1.45;0.40;;;10.20;99.90;;;;;;4631163;31;20094;-84
2022/04/08 11:23:36;;;;;;;0.60;0.30;;;10.30;99.90;;;;;;4630777;30;20051;-88
2022/04/08 11:26:20;;;;;;;2.47;0.20;;;10.30;99.90;;;;;;4630979;30;20539;-84
2022/04/08 11:29:15;;;;;;;2.67;0.30;;;10.30;99.90;;;;;;4631114;30;20055;-85
2022/04/08 11:32:23;;;;;;;3.78;0.30;;;10.30;99.90;;;;;;4632056;30;20067;-89
2022/04/08 11:35:32;;;;;;;1.75;0.30;;;10.50;99.90;;;;;;4682557;30;20057;-84
2022/04/08 11:38:43;;;;;;;2.00;0.40;;;11.00;99.90;;;;;;4694831;30;20065;-85
2022/04/08 11:45:03;;;;;;;2.70;0.30;;;10.70;99.90;;;;;;4827239;29;20452;-86
2022/04/08 11:48:01;;;;;;;2.22;0.30;;;10.60;99.90;;;;;;4844196;29;20468;-85
2022/04/08 11:51:09;;;;;;;1.20;0.30;;;10.30;99.90;;;;;;4813891;29;20057;-90
2022/04/08 11:54:35;;;;;;;0.50;0.28;;;10.10;99.90;;;;;;4849146;29;20117;-89
2022/04/08 11:58:22;;;;;;;;;;;;;;;;;;;;;
2022/04/08 12:01:32;;;;;;;1.85;0.30;;;11.00;99.90;;;;;;4821840;29;20054;-89
2022/04/08 12:23:25;;;;;;;2.97;0.40;;;12.00;99.90;;;;;;4842212;29;20053;-85
2022/04/08 12:26:24;;;;;;;4.55;0.38;;;11.80;99.90;;;;;;4824475;29;20085;-85
2022/04/08 12:29:39;;;;;;;;;;;;;;;;;;;;;
2022/04/08 12:32:48;;;;;;;1.50;0.35;;;11.90;99.30;;;;;;4843499;29;20128;-84
2022/04/08 12:46:55;;;;;;;;;;;;;;;;;;;;;
2022/04/08 12:50:12;;;;;;;2.75;0.30;;;12.20;98.10;;;;;;4844223;29;20045;-85
2022/04/08 12:53:40;;;;;;;1.05;0.32;;;11.50;99.90;;;;;;4860529;29;20053;-86
2022/04/08 12:56:55;;;;;;;0.60;0.20;;;11.30;99.90;;;;;;4842143;29;20057;-86
2022/04/08 13:00:34;;;;;;;;;;;;;;;;;;;;;
2022/04/08 13:04:27;;;;;;;;;;;;;;;;;;;;;
2022/04/08 13:14:54;;;;;;;5.93;0.45;;;11.90;99.90;;;;;;4718144;30;20427;-86
2022/04/08 13:17:58;;;;;;;4.88;0.88;;;11.80;99.90;;;;;;4717780;30;20103;-84
2022/04/08 13:20:37;;;;;;;2.22;0.40;;;12.50;98.80;;;;;;4689678;30;20148;-84
2022/04/08 13:23:26;;;;;;;0.75;0.20;;;12.30;99.50;;;;;;4717264;30;20503;-84
2022/04/08 13:26:23;;;;;;;2.25;0.38;;;12.40;97.70;;;;;;4701329;30;20614;-83
2022/04/08 13:29:26;;;;;;;3.72;0.40;;;12.20;98.10;;;;;;4716394;30;20148;-84
2022/04/08 13:32:46;;;;;;;;;;;;;;;;;;;;;
2022/04/08 13:36:00;;;;;;;1.50;0.30;;;12.20;96.20;;;;;;4710707;30;20084;-84
2022/04/08 13:38:58;;;;;;;2.17;0.30;;;12.00;93.10;;;;;;4703392;30;20562;-83
2022/04/08 13:41:45;;;;;;;2.85;0.45;;;11.80;96.50;;;;;;4742045;30;20078;-84
2022/04/08 13:44:54;;;;;;;1.40;0.30;;;11.70;97.80;;;;;;4787345;30;20047;-83
2022/04/08 13:47:54;;;;;;;;;;;;;;;;;;;;;
2022/04/08 13:51:17;;;;;;;;;;;;;;;;;;;;;
2022/04/08 13:54:19;;;;;;;5.07;0.35;;;11.50;99.90;;;;;;4857689;29;20084;-83
2022/04/08 14:01:08;;;;;;;2.72;0.50;;;11.90;99.60;;;;;;4858022;29;20399;-84
2022/04/08 14:07:43;;;;;;;;;;;;;;;;;;;;;
2022/04/08 14:11:08;;;;;;;3.30;0.50;;;11.60;99.90;;;;;;4772062;30;20636;-85
2022/04/08 14:14:15;;;;;;;;;;;;;;;;;;;;;
2022/04/08 14:17:33;;;;;;;;;;;;;;;;;;;;;
2022/04/08 14:24:04;;;;;;;1.98;0.40;;;11.40;99.90;;;;;;4752602;30;20144;-86
2022/04/08 14:27:09;;;;;;;3.13;0.80;;;11.60;99.90;;;;;;4726606;30;20066;-86
2022/04/08 14:30:10;;;;;;;1.20;0.25;;;11.30;99.50;;;;;;4718449;30;20538;-86
2022/04/08 14:40:47;;;;;;;;;;;;;;;;;;;;;
2022/04/08 14:43:40;;;;;;;2.60;0.40;;;11.50;99.90;;;;;;4649996;30;20069;-87
2022/04/08 14:47:35;;;;;;;;;;;;;;;;;;;;;
2022/04/08 14:59:17;;;;;;;1.88;0.40;;;12.20;99.90;;;;;;4871187;29;20068;-85
2022/04/08 15:09:40;;;;;;;;;;;;;;;;;;;;;
2022/04/08 15:12:40;;;;;;;0.60;0.30;;;11.40;99.10;;;;;;4838428;29;20059;-87
2022/04/08 15:15:45;;;;;;;5.80;0.40;;;11.20;99.90;;;;;;4861905;29;20041;-85
2022/04/08 15:18:46;;;;;;;1.92;0.65;;;11.40;98.60;;;;;;4855431;29;20056;-86
2022/04/08 15:21:35;;;;;;;4.28;0.63;;;11.30;99.50;;;;;;4859656;29;20093;-85
2022/04/08 15:24:29;;;;;;;2.15;0.40;;;11.50;99.90;;;;;;4874356;29;20048;-84
2022/04/08 15:27:51;;;;;;;;;;;;;;;;;;;;;
2022/04/08 15:30:41;;;;;;;3.92;0.55;;;10.90;99.90;;;;;;4876097;29;20554;-85
2022/04/08 15:33:40;;;;;;;3.15;0.55;;;10.70;99.90;;;;;;4872940;29;20045;-86
2022/04/08 15:36:41;;;;;;;1.75;0.60;;;10.70;99.90;;;;;;4873317;29;20052;-85
2022/04/08 15:39:35;;;;;;;2.80;0.40;;;10.40;99.90;;;;;;4855563;29;20506;-85
2022/04/08 15:42:33;;;;;;;3.08;0.50;;;10.30;99.90;;;;;;4855920;29;20073;-86
2022/04/08 15:45:39;;;;;;;3.92;0.73;;;10.20;99.90;;;;;;4856180;29;20049;-85
2022/04/08 15:48:45;;;;;;;;;;;;;;;;;;;;;
2022/04/08 15:51:57;;;;;;;;;;;;;;;;;;;;;
2022/04/08 15:54:57;;;;;;;;;;;;;;;;;;;;;
2022/04/08 15:57:58;;;;;;;;;;;;;;;;;;;;;
2022/04/08 16:01:20;;;;;;;;;;;;;;;;;;;;;
2022/04/08 16:04:21;;;;;;;3.03;0.60;;;9.80;99.90;;;;;;4874213;29;20093;-85
2022/04/08 16:07:20;;;;;;;;;;;;;;;;;;;;;
2022/04/08 16:10:37;;;;;;;3.05;0.50;;;9.70;99.90;;;;;;4860497;29;20049;-87
2022/04/08 16:17:09;;;;;;;2.25;0.40;;;9.70;99.90;;;;;;4878968;29;20122;-85
2022/04/08 16:20:17;;;;;;;7.13;0.90;;;9.10;99.90;;;;;;4861853;29;20059;-87
2022/04/08 16:23:47;;;;;;;1.95;0.80;;;9.70;99.90;;;;;;4878484;29;20057;-87
2022/04/08 16:26:49;;;;;;;6.18;1.20;;;9.50;99.90;;;;;;4861073;29;20507;-87
2022/04/08 16:29:43;;;;;;;12.43;1.38;;;9.60;99.90;;;;;;4878100;29;20043;-86
2022/04/08 16:32:25;;;;;;;6.22;0.73;;;9.30;99.90;;;;;;4877554;29;20143;-87
2022/04/08 16:35:59;;;;;;;4.93;0.70;;;9.00;99.90;;;;;;4878493;29;20052;-84
2022/04/08 16:39:13;;;;;;;2.47;0.50;;;8.80;99.90;;;;;;4874647;29;20088;-86
2022/04/08 16:42:44;;;;;;;;;;;;;;;;;;;;;
2022/04/08 16:45:52;;;;;;;4.68;0.75;;;8.30;99.90;;;;;;4859052;29;20061;-86
2022/04/08 16:48:54;;;;;;;5.03;0.70;;;8.20;99.90;;;;;;4877333;29;20048;-84
2022/04/08 16:51:39;;;;;;;6.43;0.80;;;8.20;99.90;;;;;;4878384;29;20037;-86
2022/04/08 16:54:42;;;;;;;7.72;0.90;;;8.20;99.90;;;;;;4867342;29;20108;-85
2022/04/08 16:57:37;;;;;;;2.90;0.65;;;8.20;99.90;;;;;;4876508;29;20089;-85
2022/04/08 17:00:44;;;;;;;7.65;1.13;;;8.10;99.90;;;;;;4876718;29;20088;-86
2022/04/08 17:03:52;;;;;;;7.22;1.00;;;8.20;99.90;;;;;;4872429;29;20136;-86
2022/04/08 17:06:43;;;;;;;3.92;0.75;;;8.20;99.90;;;;;;4878059;29;20112;-85
2022/04/08 17:09:38;;;;;;;4.90;0.75;;;8.20;99.90;;;;;;4877067;29;20061;-86
2022/04/08 17:12:36;;;;;;;5.60;1.17;;;8.30;99.90;;;;;;4861291;29;20056;-86
2022/04/08 17:15:44;;;;;;;4.03;0.60;;;8.10;99.90;;;;;;4876368;29;20337;-86
2022/04/08 17:22:14;;;;;;;4.18;0.88;;;7.90;99.90;;;;;;4875380;29;20177;-84
2022/04/08 17:25:07;;;;;;;5.28;0.93;;;8.00;99.90;;;;;;4870782;29;20080;-87
2022/04/08 17:28:21;;;;;;;2.50;0.63;;;8.00;99.90;;;;;;4860816;29;20113;-86
2022/04/08 17:31:06;;;;;;;5.00;0.95;;;8.00;99.90;;;;;;4872987;29;20052;-86
2022/04/08 17:34:05;;;;;;;;;;;;;;;;;;;;;
2022/04/08 17:37:21;;;;;;;10.85;0.98;;;7.70;99.90;;;;;;4872184;29;20049;-85
2022/04/08 17:48:00;;;;;;;6.20;0.70;;;7.40;99.90;;;;;;4817055;29;20065;-84
2022/04/08 17:51:03;;;;;;;5.78;1.00;;;7.30;99.90;;;;;;4804266;29;20136;-87
2022/04/08 17:54:07;;;;;;;;;;;;;;;;;;;;;
2022/04/08 17:57:06;;;;;;;5.63;0.70;;;7.30;99.90;;;;;;4823863;29;20046;-86
2022/04/08 18:00:14;;;;;;;8.20;0.90;;;7.30;99.90;;;;;;4815070;29;20050;-86
2022/04/08 18:03:22;;;;;;;6.82;1.00;;;7.20;99.90;;;;;;4805330;29;20062;-87
2022/04/08 18:06:27;;;;;;;5.28;0.90;;;7.10;99.90;;;;;;4790472;29;20104;-87
2022/04/08 18:09:18;;;;;;;3.28;0.43;;;7.10;99.90;;;;;;4800941;29;20129;-87
2022/04/08 18:12:16;;;;;;;;;;;;;;;;;;;;;
2022/04/08 18:15:13;;;;;;;6.53;1.02;;;7.30;99.90;;;;;;4805210;29;20053;-86
2022/04/08 18:18:05;;;;;;;;;;;;;;;;;;;;;
2022/04/08 18:20:54;;;;;;;3.17;0.80;;;7.00;99.90;;;;;;4855105;29;20515;-87
2022/04/08 18:23:53;;;;;;;5.68;1.10;;;6.90;99.90;;;;;;4854975;29;20053;-86
2022/04/08 18:27:15;;;;;;;;;;;;;;;;;;;;;
2022/04/08 18:33:39;;;;;;;9.27;1.08;;;6.90;99.90;;;;;;4859592;29;20147;-88
2022/04/08 18:36:31;;;;;;;3.28;0.90;;;6.90;99.90;;;;;;4861927;29;20128;-86
2022/04/08 18:39:27;;;;;;;;;;;6.60;99.90;;;;;;4846357;29;20088;-86
2022/04/08 18:42:26;;;;;;;3.35;0.70;;;6.60;99.90;;;;;;4845572;29;19998;-85
2022/04/08 18:45:07;;;;;;;10.40;1.02;;;6.50;99.90;;;;;;4860333;29;20066;-86
2022/04/08 18:47:34;;;;;;;6.35;1.13;;;6.50;99.90;;;;;;4860993;29;20049;-85
2022/04/08 18:50:33;;;;;;;;;;;6.50;99.90;;;;;;4857036;29;20410;-86
2022/04/08 18:56:19;;;;;;;6.97;0.75;;;6.20;99.90;;;;;;4855064;29;20149;-85
2022/04/08 18:59:25;;;;;;;13.25;1.10;;;6.20;99.90;;;;;;4861166;29;20094;-85
2022/04/08 19:02:00;;;;;;;3.22;0.82;;;6.20;99.90;;;;;;4858066;29;20065;-85
2022/04/08 19:04:31;;;;;;;10.27;1.02;;;6.30;99.90;;;;;;4861665;29;20052;-86
2022/04/08 19:10:42;;;;;;;7.00;0.80;;;6.40;99.90;;;;;;4857760;29;20057;-87
2022/04/08 19:13:20;;;;;;;8.15;0.82;;;6.30;99.90;;;;;;4861349;29;20046;-85
2022/04/08 19:15:50;;;;;;;3.92;0.98;;;6.10;99.90;;;;;;4861046;29;20522;-85
2022/04/08 19:18:20;;;;;;;6.22;0.90;;;6.10;99.90;;;;;;4860631;29;20053;-85
2022/04/08 19:20:49;;;;;;;8.15;1.70;;;6.10;99.90;;;;;;4860789;29;20050;-86
2022/04/08 19:23:21;;;;;;;5.82;1.35;;;6.10;99.90;;;;;;4854635;29;20124;-84
2022/04/08 19:25:49;;;;;;;5.25;1.30;;;5.90;99.90;;;;;;4862505;29;20054;-83
2022/04/08 19:28:15;;;;;;;3.47;0.75;;;5.80;99.90;;;;;;4862926;29;20177;-84
2022/04/08 19:30:43;;;;;;;5.60;1.17;;;5.60;99.90;;;;;;4861276;29;20057;-86
2022/04/08 19:33:09;;;;;;;4.70;1.20;;;5.60;99.90;;;;;;4860193;29;20045;-87
2022/04/08 19:35:39;;;;;;;5.28;0.90;;;5.50;99.90;;;;;;4846073;29;20057;-86
2022/04/08 19:38:24;;;;;;;5.78;1.55;;;5.40;99.90;;;;;;4859709;29;20052;-86
2022/04/08 19:40:59;;;;;;;8.65;1.45;;;5.50;99.90;;;;;;4856777;29;20050;-85
2022/04/08 19:43:28;;;;;;;6.50;1.23;;;5.50;99.90;;;;;;4853913;29;20055;-84
2022/04/08 19:46:00;;;;;;;6.75;1.15;;;6.20;99.90;;;;;;4843468;29;20045;-84
2022/04/08 19:48:32;;;;;;;2.97;1.00;;;5.50;99.90;;;;;;4843411;29;20117;-85
2022/04/08 19:50:59;;;;;;;4.13;0.90;;;5.60;99.90;;;;;;4844026;29;20034;-85
2022/04/08 19:53:28;;;;;;;7.07;1.33;;;5.60;99.90;;;;;;4860319;29;20052;-86
2022/04/08 19:56:05;;;;;;;8.07;1.10;;;5.50;99.90;;;;;;4859856;29;20053;-86
2022/04/08 19:58:38;;;;;;;5.93;0.75;;;5.50;99.90;;;;;;4860634;29;20037;-85
2022/04/08 20:01:03;;;;;;;2.80;0.65;;;5.50;99.90;;;;;;4872188;29;20053;-85
2022/04/08 20:03:32;;;;;;;5.68;1.00;;;5.50;99.90;;;;;;4879049;29;20518;-85
2022/04/08 20:06:01;;;;;;;7.43;1.15;;;5.50;99.90;;;;;;4878588;29;20033;-85
2022/04/08 20:08:32;;;;;;;5.07;0.70;;;5.50;99.90;;;;;;4877813;29;20117;-86
2022/04/08 20:11:03;;;;;;;4.70;1.30;;;5.30;99.90;;;;;;4878604;29;20063;-85
2022/04/08 20:13:32;;;;;;;3.92;1.20;;;5.40;99.90;;;;;;4862514;29;20045;-82
2022/04/08 20:16:00;;;;;;;4.18;1.10;;;5.50;99.90;;;;;;4861651;29;20061;-85
2022/04/08 20:18:33;;;;;;;2.30;0.70;;;5.30;99.90;;;;;;4878495;29;20447;-85
2022/04/08 20:21:04;;;;;;;5.65;1.05;;;5.30;99.90;;;;;;4874215;29;20041;-85
2022/04/08 20:23:34;;;;;;;4.63;1.02;;;5.40;99.90;;;;;;4874223;29;20117;-86
2022/04/08 20:26:05;;;;;;;4.30;0.60;;;5.40;99.90;;;;;;4879325;29;20045;-84
2022/04/08 20:28:38;;;;;;;5.38;0.70;;;5.30;99.90;;;;;;4862158;29;20065;-86
2022/04/08 20:31:11;;;;;;;5.68;0.80;;;5.40;99.90;;;;;;4878253;29;20477;-85
2022/04/08 20:33:37;;;;;;;7.13;1.00;;;5.30;99.90;;;;;;4878341;29;20057;-85
2022/04/08 20:36:09;;;;;;;9.23;1.20;;;5.40;99.90;;;;;;4877979;29;20037;-84
2022/04/08 20:38:37;;;;;;;3.35;0.80;;;5.40;99.90;;;;;;4855222;29;20061;-85
2022/04/08 20:41:06;;;;;;;7.88;1.02;;;5.30;99.90;;;;;;4878103;29;20040;-85
2022/04/08 20:43:40;;;;;;;4.38;0.57;;;5.30;99.90;;;;;;4878472;29;20060;-84
2022/04/08 20:46:56;;;;;;;3.65;0.98;;;5.30;99.90;;;;;;4854478;29;20490;-85
2022/04/08 20:49:46;;;;;;;15.68;2.50;;;5.30;99.90;;;;;;4878484;29;20060;-82
2022/04/08 20:53:13;;;;;;;;;;;;;;;;;;;;;
2022/04/08 20:56:43;;;;;;;5.50;0.82;;;5.40;99.90;;;;;;4877227;29;20053;-86
2022/04/08 21:04:26;;;;;;;;;;;;;;;;;;;;;
2022/04/08 21:07:41;;;;;;;;;;;;;;;;;;;;;
2022/04/08 21:11:00;;;;;;;;;;;;;;;;;;;;;
2022/04/08 21:14:02;;;;;;;4.07;1.27;;;5.60;99.90;;;;;;4846574;29;20118;-85
2022/04/08 21:17:15;;;;;;;8.05;1.30;;;5.50;99.90;;;;;;4874694;29;20411;-90
2022/04/08 21:20:26;;;;;;;;;;;;;;;;;;;;;
2022/04/08 21:23:49;;;;;;;4.82;0.93;;;5.40;99.90;;;;;;4819000;29;20055;-91
2022/04/08 21:27:00;;;;;;;6.60;1.00;;;5.40;99.90;;;;;;4820548;29;20102;-91
2022/04/08 21:30:11;;;;;;;7.43;1.23;;;5.40;99.90;;;;;;4787698;29;20062;-92
2022/04/08 21:32:59;;;;;;;9.73;1.30;;;5.30;99.90;;;;;;4805828;29;20057;-87
2022/04/08 21:36:13;;;;;;;7.10;1.65;;;5.40;99.90;;;;;;4824411;29;20054;-89
2022/04/08 21:39:29;;;;;;;;;;;;;;;;;;;;;
2022/04/08 21:42:20;;;;;;;7.00;0.80;;;5.20;99.90;;;;;;4809508;29;20504;-86
2022/04/08 21:45:39;;;;;;;5.47;1.95;;;5.10;99.90;;;;;;4810097;29;20070;-85
2022/04/08 21:48:44;;;;;;;5.32;1.20;;;5.20;99.90;;;;;;4820854;29;20062;-87
2022/04/08 21:51:36;;;;;;;5.57;0.73;;;5.10;99.90;;;;;;4828473;29;20134;-85
2022/04/08 21:55:53;;;;;;;;;;;;;;;;;;;;;
2022/04/08 21:58:52;;;;;;;;;;;;;;;;;;;;;
2022/04/08 22:01:59;;;;;;;3.83;0.60;;;4.90;99.90;;;;;;4812438;29;20062;-91
2022/04/08 22:13:34;;;;;;;;;;;;;;;;;;;;;
2022/04/08 22:16:48;;;;;;;;;;;;;;;;;;;;;
2022/04/08 22:20:18;;;;;;;5.78;0.90;;;5.00;99.90;;;;;;4798710;29;20481;-89
2022/04/08 22:23:18;;;;;;;2.28;0.32;;;5.00;99.90;;;;;;4814460;29;20066;-87
2022/04/08 22:26:19;;;;;;;5.13;0.52;;;4.90;99.90;;;;;;4807164;29;20418;-90
2022/04/08 22:29:31;;;;;;;4.63;0.90;;;4.90;99.90;;;;;;4814938;29;20047;-89
2022/04/08 22:39:45;;;;;;;;;;;;;;;;;;;;;
2022/04/08 22:43:15;;;;;;;4.80;0.70;;;4.80;99.90;;;;;;4819674;29;20150;-90
2022/04/08 22:46:17;;;;;;;7.05;1.00;;;4.70;99.90;;;;;;4788959;29;20051;-87
2022/04/08 22:49:32;;;;;;;;;;;;;;;;;;;;;
2022/04/08 22:53:06;;;;;;;;;;;;;;;;;;;;;
2022/04/08 22:56:17;;;;;;;1.88;0.65;;;5.10;99.90;;;;;;4862954;29;20063;-89
2022/04/08 23:03:18;;;;;;;0.68;0.40;;;4.90;99.90;;;;;;4878725;29;20044;-90
2022/04/08 23:06:46;;;;;;;3.63;0.30;;;4.80;99.90;;;;;;4874872;29;20455;-89
2022/04/08 23:10:20;;;;;;;;;;;;;;;;;;;;;
2022/04/08 23:13:52;;;;;;;5.07;0.60;;;4.80;99.90;;;;;;4874860;29;20414;-90
2022/04/08 23:17:19;;;;;;;4.97;0.45;;;4.70;99.90;;;;;;4879825;29;20053;-91
2022/04/08 23:20:36;;;;;;;3.10;0.47;;;4.60;99.90;;;;;;4861211;29;20527;-92
2022/04/08 23:23:41;;;;;;;2.50;0.40;;;4.50;99.90;;;;;;4873343;29;20383;-89
2022/04/08 23:26:37;;;;;;;5.38;0.63;;;4.40;99.90;;;;;;4876800;29;20056;-89
2022/04/08 23:29:56;;;;;;;2.38;0.55;;;4.40;99.90;;;;;;4826789;29;20080;-90
2022/04/08 23:33:26;;;;;;;;;;;;;;;;;;;;;
2022/04/08 23:36:31;;;;;;;7.80;0.80;;;4.30;99.90;;;;;;4879494;29;20045;-89
2022/04/08 23:39:24;;;;;;;2.35;1.02;;;4.30;99.90;;;;;;4840040;29;20064;-91
2022/04/08 23:42:42;;;;;;;;;;;;;;;;;;;;;